Time;durP1;ratioP1;P1;durP2;ratioP2;P2;SDS_P1;SDS_P2;PMS_P1;PMS_P2;Temp;Humidity;BMP_temperature;BMP_pressure;BME280_temperature;BME280_humidity;BME280_pressure;Samples;Min_cycle;Max_cycle;Signal;HPM_P1;HPM_P2
2023/04/22 00:03:21;;;;;;;12.63;8.32;;;7.10;99.90;;;;;;7297793;32;20139;-55
2023/04/22 00:07:23;;;;;;;14.20;8.57;;;7.00;99.90;;;;;;7297234;32;20131;-54
2023/04/22 00:11:25;;;;;;;12.18;8.13;;;7.00;99.90;;;;;;7301188;32;22127;-55
2023/04/22 00:15:27;;;;;;;12.32;8.25;;;6.90;99.90;;;;;;7301695;32;20112;-55
2023/04/22 00:19:29;;;;;;;14.70;7.90;;;6.90;99.90;;;;;;7312436;32;20107;-55
2023/04/22 00:23:31;;;;;;;11.40;7.68;;;6.90;99.90;;;;;;7302027;32;20116;-54
2023/04/22 00:27:33;;;;;;;12.50;8.32;;;6.90;99.90;;;;;;7301162;32;20107;-54
2023/04/22 00:31:34;;;;;;;12.05;8.32;;;6.90;99.90;;;;;;7297738;32;20601;-54
2023/04/22 00:35:36;;;;;;;11.23;7.90;;;6.90;99.90;;;;;;7299635;32;21681;-55
2023/04/22 00:39:38;;;;;;;9.73;7.55;;;6.90;99.90;;;;;;7299119;32;20265;-55
2023/04/22 00:43:40;;;;;;;10.93;7.95;;;6.90;99.90;;;;;;7299894;32;20729;-55
2023/04/22 00:47:44;;;;;;;11.20;8.45;;;7.00;99.90;;;;;;7300246;32;20592;-56
2023/04/22 00:51:46;;;;;;;9.80;7.53;;;6.90;99.90;;;;;;7299229;32;20152;-54
2023/04/22 00:55:48;;;;;;;10.25;7.28;;;7.00;99.90;;;;;;7296692;32;20503;-55
2023/04/22 00:59:50;;;;;;;8.45;6.45;;;7.00;99.90;;;;;;7303334;32;20108;-55
2023/04/22 01:03:52;;;;;;;13.27;7.60;;;7.00;99.90;;;;;;7294971;32;20689;-55
2023/04/22 01:07:54;;;;;;;10.57;7.32;;;7.00;99.90;;;;;;7296994;32;20132;-55
2023/04/22 01:11:56;;;;;;;10.25;7.37;;;7.00;99.90;;;;;;7297997;32;20230;-54
2023/04/22 01:16:00;;;;;;;11.02;6.97;;;7.00;99.90;;;;;;7300826;32;20742;-55
2023/04/22 01:20:04;;;;;;;10.65;7.62;;;7.00;99.90;;;;;;7296574;32;20107;-55
2023/04/22 01:24:07;;;;;;;9.75;6.93;;;7.00;99.90;;;;;;7302542;32;20194;-57
2023/04/22 01:28:09;;;;;;;11.45;7.15;;;7.00;99.90;;;;;;7295898;32;20123;-55
2023/04/22 01:32:10;;;;;;;10.13;7.45;;;7.00;99.90;;;;;;7298195;32;20179;-55
2023/04/22 01:36:13;;;;;;;9.18;7.12;;;7.00;99.90;;;;;;7296504;32;20242;-55
2023/04/22 01:40:18;;;;;;;10.98;7.50;;;7.00;99.90;;;;;;7295966;32;20226;-54
2023/04/22 01:44:20;;;;;;;15.73;7.00;;;7.10;99.90;;;;;;7297187;32;20241;-55
2023/04/22 01:48:23;;;;;;;8.90;6.47;;;7.00;99.90;;;;;;7297453;32;20243;-54
2023/04/22 01:52:26;;;;;;;9.75;6.72;;;7.00;99.90;;;;;;7298797;32;20491;-55
2023/04/22 01:56:28;;;;;;;12.10;6.20;;;7.10;99.90;;;;;;7296067;32;20190;-56
2023/04/22 02:00:30;;;;;;;12.48;6.10;;;7.10;99.90;;;;;;7295203;32;20126;-55
2023/04/22 02:04:32;;;;;;;11.43;6.03;;;7.10;99.90;;;;;;7302284;32;20129;-56
2023/04/22 02:08:34;;;;;;;9.35;6.35;;;7.10;99.90;;;;;;7300210;32;20130;-55
2023/04/22 02:12:35;;;;;;;9.23;6.10;;;7.10;99.90;;;;;;7297677;32;20166;-55
2023/04/22 02:16:39;;;;;;;9.43;5.85;;;7.10;99.90;;;;;;7300963;32;20136;-57
2023/04/22 02:20:41;;;;;;;7.07;5.57;;;7.10;99.90;;;;;;7296600;32;20717;-56
2023/04/22 02:24:43;;;;;;;9.45;6.47;;;7.10;99.90;;;;;;7291524;32;20207;-54
2023/04/22 02:28:45;;;;;;;9.38;6.55;;;7.20;99.90;;;;;;7293783;32;20261;-54
2023/04/22 02:32:46;;;;;;;10.27;5.70;;;7.20;99.90;;;;;;7295444;32;20297;-56
2023/04/22 02:36:48;;;;;;;8.73;6.07;;;7.20;99.90;;;;;;7284836;32;20675;-56
2023/04/22 02:40:50;;;;;;;10.45;6.05;;;7.30;99.90;;;;;;7293105;32;20105;-55
2023/04/22 02:44:52;;;;;;;9.70;6.62;;;7.30;99.90;;;;;;7292786;32;20187;-55
2023/04/22 02:48:53;;;;;;;7.78;6.32;;;7.40;99.90;;;;;;7298446;32;20605;-54
2023/04/22 02:52:55;;;;;;;9.35;5.95;;;7.40;99.90;;;;;;7294469;32;20233;-54
2023/04/22 02:56:57;;;;;;;11.12;6.43;;;7.40;99.90;;;;;;7293259;32;20439;-56
2023/04/22 03:00:58;;;;;;;9.65;6.72;;;7.40;99.90;;;;;;7292560;32;20159;-56
2023/04/22 03:05:00;;;;;;;8.73;6.62;;;7.40;99.90;;;;;;7298725;32;20116;-55
2023/04/22 03:09:02;;;;;;;9.18;7.10;;;7.50;99.90;;;;;;7296281;32;20655;-55
2023/04/22 03:13:04;;;;;;;7.60;6.37;;;7.40;99.90;;;;;;7289548;32;20215;-55
2023/04/22 03:17:06;;;;;;;10.82;6.45;;;7.40;99.90;;;;;;7295938;32;20194;-55
2023/04/22 03:21:07;;;;;;;7.80;5.70;;;7.40;99.90;;;;;;7293721;32;20738;-55
2023/04/22 03:25:10;;;;;;;9.18;6.03;;;7.50;99.90;;;;;;7292439;32;20227;-55
2023/04/22 03:29:12;;;;;;;9.02;5.70;;;7.50;99.90;;;;;;7293418;32;20120;-55
2023/04/22 03:33:14;;;;;;;7.82;5.18;;;7.60;99.90;;;;;;7296514;32;20165;-55
2023/04/22 03:37:16;;;;;;;6.97;5.15;;;7.60;99.90;;;;;;7294626;32;20473;-54
2023/04/22 03:41:17;;;;;;;8.30;5.93;;;7.70;99.90;;;;;;7295372;32;20131;-57
2023/04/22 03:45:19;;;;;;;6.37;5.37;;;7.90;99.90;;;;;;7297770;32;21033;-55
2023/04/22 03:49:21;;;;;;;8.05;6.35;;;7.90;99.90;;;;;;7303829;32;20215;-54
2023/04/22 03:53:23;;;;;;;11.35;6.43;;;7.80;99.90;;;;;;7306827;32;20213;-54
2023/04/22 03:57:24;;;;;;;6.87;5.47;;;7.80;99.90;;;;;;7299461;32;20913;-54
2023/04/22 04:01:26;;;;;;;7.65;5.93;;;7.80;99.90;;;;;;7298714;32;20108;-54
2023/04/22 04:05:28;;;;;;;6.35;5.32;;;7.80;99.90;;;;;;7306142;32;20103;-54
2023/04/22 04:09:30;;;;;;;6.37;5.40;;;7.80;99.90;;;;;;7299614;32;20202;-55
2023/04/22 04:13:31;;;;;;;12.13;6.10;;;7.80;99.90;;;;;;7308187;32;20122;-55
2023/04/22 04:17:33;;;;;;;7.68;6.35;;;7.80;99.90;;;;;;7301667;32;20565;-55
2023/04/22 04:21:36;;;;;;;7.40;6.00;;;7.90;99.90;;;;;;7305838;32;20185;-55
2023/04/22 04:25:38;;;;;;;8.30;5.50;;;7.90;99.90;;;;;;7304390;32;20203;-55
2023/04/22 04:29:40;;;;;;;8.93;5.72;;;7.90;99.90;;;;;;7304751;32;20139;-55
2023/04/22 04:33:42;;;;;;;6.43;5.20;;;8.00;99.90;;;;;;7310934;32;20226;-54
2023/04/22 04:37:45;;;;;;;6.95;5.32;;;8.10;99.90;;;;;;7306179;32;20169;-55
2023/04/22 04:41:47;;;;;;;6.82;5.40;;;8.10;99.90;;;;;;7307954;32;20229;-54
2023/04/22 04:45:49;;;;;;;8.40;5.22;;;8.10;99.90;;;;;;7304440;32;20139;-55
2023/04/22 04:49:53;;;;;;;9.50;5.87;;;8.30;99.90;;;;;;7305222;32;20218;-55
2023/04/22 04:53:54;;;;;;;7.93;5.12;;;8.30;99.90;;;;;;7300847;32;20246;-55
2023/04/22 04:57:56;;;;;;;6.03;4.93;;;8.30;99.90;;;;;;7305330;32;20128;-55
2023/04/22 05:01:58;;;;;;;7.10;5.87;;;8.30;99.90;;;;;;7303059;32;20177;-55
2023/04/22 05:05:59;;;;;;;8.48;5.70;;;8.40;99.90;;;;;;7296648;32;20212;-54
2023/04/22 05:10:02;;;;;;;6.50;5.00;;;8.50;99.90;;;;;;7300864;32;20280;-55
2023/04/22 05:14:04;;;;;;;7.82;5.30;;;8.50;99.90;;;;;;7304713;32;20096;-58
2023/04/22 05:18:06;;;;;;;7.32;4.82;;;8.60;99.90;;;;;;7305494;32;20186;-56
2023/04/22 05:22:08;;;;;;;6.75;4.95;;;8.80;99.90;;;;;;7297743;32;20226;-58
2023/04/22 05:26:10;;;;;;;6.62;4.82;;;8.90;99.90;;;;;;7305569;32;20140;-57
2023/04/22 05:30:12;;;;;;;5.90;4.12;;;9.10;99.90;;;;;;7305139;32;23083;-57
2023/04/22 05:34:13;;;;;;;7.07;4.72;;;9.20;99.90;;;;;;7309491;32;20295;-55
2023/04/22 05:38:15;;;;;;;5.22;3.65;;;9.40;99.90;;;;;;7306443;32;20237;-55
2023/04/22 05:42:18;;;;;;;4.32;3.65;;;9.60;99.90;;;;;;7305728;32;20935;-57
2023/04/22 05:46:19;;;;;;;4.35;3.60;;;9.80;99.90;;;;;;7305379;32;20134;-54
2023/04/22 05:50:21;;;;;;;3.58;2.80;;;10.00;99.90;;;;;;7302066;32;20621;-55
2023/04/22 05:54:24;;;;;;;3.67;3.05;;;10.10;99.90;;;;;;7308374;32;20220;-55
2023/04/22 05:58:26;;;;;;;2.97;2.55;;;10.30;99.90;;;;;;7300757;32;20215;-54
2023/04/22 06:02:27;;;;;;;3.65;2.10;;;10.50;99.90;;;;;;7307213;32;20310;-56
2023/04/22 06:06:30;;;;;;;7.03;2.72;;;10.60;99.90;;;;;;7296442;32;20253;-55
2023/04/22 06:10:32;;;;;;;2.85;2.12;;;10.80;99.90;;;;;;7301487;32;20545;-56
2023/04/22 06:14:34;;;;;;;2.72;2.53;;;11.00;99.90;;;;;;7300989;32;20606;-56
2023/04/22 06:18:36;;;;;;;3.25;2.58;;;11.10;99.90;;;;;;7302818;32;20134;-56
2023/04/22 06:22:39;;;;;;;5.35;2.55;;;11.20;99.90;;;;;;7307490;32;20154;-56
2023/04/22 06:26:41;;;;;;;3.35;2.30;;;11.10;99.90;;;;;;7302432;32;20163;-56
2023/04/22 06:30:42;;;;;;;3.45;2.33;;;11.20;99.90;;;;;;7307766;32;20172;-57
2023/04/22 06:34:44;;;;;;;3.55;1.95;;;11.20;99.90;;;;;;7295250;32;20717;-56
2023/04/22 06:38:46;;;;;;;2.97;2.05;;;11.30;99.90;;;;;;7302034;32;20725;-55
2023/04/22 06:42:47;;;;;;;3.05;2.25;;;11.50;99.90;;;;;;7303766;32;20133;-56
2023/04/22 06:46:49;;;;;;;4.40;2.03;;;11.50;99.90;;;;;;7301855;32;20353;-56
2023/04/22 06:50:51;;;;;;;3.92;1.92;;;11.60;99.90;;;;;;7298461;32;20505;-54
2023/04/22 06:54:53;;;;;;;2.65;2.12;;;11.80;99.90;;;;;;7300556;32;20130;-55
2023/04/22 06:58:54;;;;;;;2.90;2.20;;;11.90;99.90;;;;;;7296107;32;20249;-55
2023/04/22 07:02:56;;;;;;;2.80;1.90;;;12.20;99.90;;;;;;7299710;32;20227;-55
2023/04/22 07:06:58;;;;;;;3.37;1.58;;;12.30;99.90;;;;;;7297689;32;20112;-56
2023/04/22 07:11:00;;;;;;;2.72;1.80;;;12.60;99.90;;;;;;7297009;32;20111;-57
2023/04/22 07:15:02;;;;;;;3.60;1.90;;;13.00;99.90;;;;;;7301669;32;20578;-57
2023/04/22 07:19:05;;;;;;;2.30;1.70;;;13.30;99.90;;;;;;7302272;32;20285;-58
2023/04/22 07:23:06;;;;;;;2.67;1.60;;;14.00;99.90;;;;;;7300447;32;20170;-57
2023/04/22 07:27:08;;;;;;;6.10;1.60;;;14.30;99.90;;;;;;7299153;32;20479;-57
2023/04/22 07:31:09;;;;;;;3.35;1.60;;;14.60;99.90;;;;;;7302802;32;20164;-57
2023/04/22 07:35:11;;;;;;;3.55;1.50;;;14.40;99.90;;;;;;7300879;32;20443;-60
2023/04/22 07:39:13;;;;;;;3.42;1.45;;;14.40;99.90;;;;;;7304699;32;20131;-62
2023/04/22 07:43:15;;;;;;;2.45;1.52;;;14.60;99.90;;;;;;7308420;32;20112;-62
2023/04/22 07:47:16;;;;;;;4.68;1.73;;;14.80;99.90;;;;;;7298883;32;20293;-63
2023/04/22 07:51:18;;;;;;;2.05;1.35;;;14.90;99.90;;;;;;7307637;32;20158;-57
2023/04/22 07:55:20;;;;;;;2.58;1.58;;;15.30;99.90;;;;;;7308614;32;20254;-57
2023/04/22 07:59:21;;;;;;;2.47;2.03;;;15.40;99.90;;;;;;7303809;32;20104;-57
2023/04/22 08:03:23;;;;;;;2.72;1.90;;;15.50;99.90;;;;;;7297412;32;20108;-57
2023/04/22 08:07:25;;;;;;;2.30;1.37;;;15.80;99.90;;;;;;7299844;32;20149;-57
2023/04/22 08:11:34;;;;;;;3.78;1.58;;;15.80;99.90;;;;;;7303274;32;20561;-57
2023/04/22 08:15:35;;;;;;;3.15;1.73;;;16.10;99.90;;;;;;7297989;32;20111;-57
2023/04/22 08:19:37;;;;;;;3.15;1.48;;;16.50;99.90;;;;;;7297882;32;20227;-57
2023/04/22 08:23:39;;;;;;;3.97;1.45;;;16.60;99.90;;;;;;7298313;32;20171;-59
2023/04/22 08:27:41;;;;;;;2.37;1.75;;;16.70;99.90;;;;;;7297709;32;20116;-57
2023/04/22 08:31:43;;;;;;;2.53;1.67;;;16.70;99.90;;;;;;7298783;32;20862;-57
2023/04/22 08:35:44;;;;;;;2.58;1.73;;;16.90;99.90;;;;;;7305293;32;20144;-57
2023/04/22 08:39:46;;;;;;;2.78;1.60;;;17.20;99.90;;;;;;7304172;32;20575;-56
2023/04/22 08:43:48;;;;;;;1.87;1.62;;;17.30;99.90;;;;;;7300258;32;20157;-56
2023/04/22 08:47:52;;;;;;;4.80;2.22;;;17.80;99.90;;;;;;7297805;32;20163;-57
2023/04/22 08:51:54;;;;;;;3.60;1.62;;;17.90;99.90;;;;;;7304246;32;20108;-57
2023/04/22 08:55:57;;;;;;;3.72;1.70;;;18.00;99.90;;;;;;7303691;32;20131;-56
2023/04/22 08:59:59;;;;;;;3.40;1.50;;;18.00;99.90;;;;;;7295846;32;20199;-57
2023/04/22 09:04:01;;;;;;;1.90;1.35;;;18.20;99.90;;;;;;7302525;32;20131;-57
2023/04/22 09:08:03;;;;;;;4.05;1.62;;;19.00;99.90;;;;;;7295634;32;20566;-57
2023/04/22 09:12:05;;;;;;;7.82;4.60;;;19.70;99.90;;;;;;7295709;32;20547;-56
2023/04/22 09:16:06;;;;;;;1.85;1.42;;;20.30;99.90;;;;;;7304943;32;20205;-58
2023/04/22 09:20:09;;;;;;;3.33;1.48;;;20.80;99.90;;;;;;7300033;32;20124;-57
2023/04/22 09:24:11;;;;;;;4.70;1.55;;;20.90;99.90;;;;;;7295597;32;22099;-57
2023/04/22 09:28:17;;;;;;;2.65;1.40;;;20.80;99.90;;;;;;7296068;32;20115;-57
2023/04/22 09:32:19;;;;;;;4.72;1.67;;;21.00;99.90;;;;;;7310337;32;20127;-58
2023/04/22 09:36:28;;;;;;;3.45;1.52;;;21.50;99.90;;;;;;7296495;32;20134;-57
2023/04/22 09:40:31;;;;;;;1.62;1.17;;;22.10;99.90;;;;;;7297573;32;20147;-57
2023/04/22 09:44:34;;;;;;;2.37;1.35;;;22.20;99.60;;;;;;7306622;32;20199;-57
2023/04/22 09:48:42;;;;;;;3.35;1.60;;;22.40;97.40;;;;;;7306581;32;20210;-57
2023/04/22 09:52:44;;;;;;;3.30;1.30;;;22.50;97.10;;;;;;7310731;32;20125;-57
2023/04/22 09:56:48;;;;;;;2.47;1.40;;;22.80;95.80;;;;;;7300580;32;20238;-57
2023/04/22 10:00:55;;;;;;;2.03;1.45;;;22.70;99.90;;;;;;7300557;32;20167;-56
2023/04/22 10:04:57;;;;;;;2.67;1.50;;;21.80;94.80;;;;;;7304499;32;20660;-56
2023/04/22 10:09:00;;;;;;;2.12;1.37;;;22.20;98.00;;;;;;7297941;32;20108;-58
2023/04/22 10:13:03;;;;;;;4.28;1.50;;;23.50;97.00;;;;;;7301134;32;20111;-57
2023/04/22 10:17:06;;;;;;;1.70;1.40;;;24.10;92.80;;;;;;7295711;32;20215;-57
2023/04/22 10:21:08;;;;;;;3.28;1.48;;;24.50;93.80;;;;;;7293274;32;20890;-57
2023/04/22 10:25:24;;;;;;;4.03;1.70;;;24.00;93.70;;;;;;7294274;32;20282;-57
2023/04/22 10:29:35;;;;;;;2.55;1.30;;;24.50;91.70;;;;;;7298658;32;20245;-57
2023/04/22 10:33:37;;;;;;;2.20;1.40;;;24.20;90.50;;;;;;7297415;32;20127;-57
2023/04/22 10:37:41;;;;;;;3.92;1.80;;;23.60;90.40;;;;;;7294915;32;20203;-61
2023/04/22 10:41:53;;;;;;;3.70;1.77;;;24.70;92.40;;;;;;7297708;32;20212;-57
2023/04/22 10:45:54;;;;;;;3.92;1.40;;;24.20;90.50;;;;;;7297897;32;20139;-57
2023/04/22 10:50:20;;;;;;;2.12;1.60;;;23.90;90.80;;;;;;7294415;32;20131;-57
2023/04/22 10:54:27;;;;;;;2.10;1.45;;;23.10;90.70;;;;;;7304749;32;20843;-57
2023/04/22 10:58:32;;;;;;;4.60;1.67;;;23.40;92.00;;;;;;7301573;32;20184;-62
2023/04/22 11:02:40;;;;;;;7.47;2.92;;;22.90;91.30;;;;;;7295594;32;20203;-57
2023/04/22 11:06:42;;;;;;;4.75;1.73;;;23.10;92.80;;;;;;7302131;32;20442;-57
2023/04/22 11:10:49;;;;;;;2.75;1.30;;;23.30;91.90;;;;;;7302239;32;20122;-57
2023/04/22 11:14:52;;;;;;;3.97;1.62;;;23.50;90.80;;;;;;7305004;32;20133;-58
2023/04/22 11:18:54;;;;;;;4.43;2.03;;;22.70;91.20;;;;;;7295896;32;20230;-57
2023/04/22 11:22:57;;;;;;;2.97;1.50;;;22.50;91.70;;;;;;7291184;32;20166;-58
2023/04/22 11:27:00;;;;;;;6.00;1.62;;;22.90;92.20;;;;;;7299925;32;20158;-57
2023/04/22 11:31:06;;;;;;;2.30;1.50;;;22.40;93.00;;;;;;7298762;32;20134;-57
2023/04/22 11:35:10;;;;;;;2.95;1.83;;;21.60;92.60;;;;;;7297738;32;20803;-57
2023/04/22 11:39:15;;;;;;;3.83;1.65;;;21.10;94.90;;;;;;7299515;32;20284;-57
2023/04/22 11:43:17;;;;;;;3.75;1.40;;;21.40;96.90;;;;;;7303141;32;20130;-57
2023/04/22 11:47:19;;;;;;;2.90;1.60;;;21.60;95.10;;;;;;7296201;32;20289;-58
2023/04/22 11:51:21;;;;;;;4.05;1.65;;;21.70;94.10;;;;;;7296235;32;20192;-58
2023/04/22 11:55:34;;;;;;;2.65;1.67;;;21.40;95.00;;;;;;7303666;32;20132;-57
2023/04/22 11:59:35;;;;;;;3.97;1.90;;;21.40;96.30;;;;;;7296602;32;20207;-57
2023/04/22 12:03:37;;;;;;;2.35;1.50;;;21.70;94.00;;;;;;7295163;32;20168;-59
2023/04/22 12:07:41;;;;;;;2.95;1.40;;;22.20;94.80;;;;;;7297410;32;20153;-58
2023/04/22 12:11:46;;;;;;;4.68;1.50;;;22.20;95.90;;;;;;7302736;32;21140;-58
2023/04/22 12:15:52;;;;;;;4.25;1.80;;;23.30;93.20;;;;;;7300633;32;20115;-58
2023/04/22 12:19:55;;;;;;;5.07;1.63;;;23.00;91.60;;;;;;7308186;32;20549;-57
2023/04/22 12:24:05;;;;;;;4.00;1.62;;;22.70;94.20;;;;;;7299167;32;20735;-58
2023/04/22 12:28:06;;;;;;;3.90;1.80;;;21.90;94.60;;;;;;7303271;32;20203;-58
2023/04/22 12:32:08;;;;;;;3.35;1.87;;;22.00;95.50;;;;;;7299720;32;20116;-58
2023/04/22 12:36:10;;;;;;;3.28;1.90;;;23.10;93.10;;;;;;7302602;32;20310;-58
2023/04/22 12:40:12;;;;;;;4.07;1.70;;;24.70;91.10;;;;;;7301341;32;20190;-58
2023/04/22 12:44:13;;;;;;;3.78;1.55;;;25.80;83.70;;;;;;7299913;32;20112;-59
2023/04/22 12:48:15;;;;;;;3.45;1.55;;;26.30;82.40;;;;;;7303233;32;20188;-58
2023/04/22 12:52:17;;;;;;;6.22;2.08;;;26.90;83.50;;;;;;7305703;32;20108;-59
2023/04/22 12:56:19;;;;;;;4.15;1.60;;;27.40;75.80;;;;;;7307792;32;20836;-58
2023/04/22 13:00:21;;;;;;;3.05;1.90;;;27.20;73.40;;;;;;7304197;32;20234;-58
2023/04/22 13:04:23;;;;;;;4.18;1.92;;;26.40;78.00;;;;;;7300116;32;20135;-58
2023/04/22 13:08:25;;;;;;;5.70;2.03;;;23.80;84.50;;;;;;7307544;32;20700;-56
2023/04/22 13:12:27;;;;;;;3.83;1.87;;;22.70;90.30;;;;;;7311683;32;20171;-58
2023/04/22 13:16:29;;;;;;;3.97;2.20;;;21.80;92.30;;;;;;7307390;32;20256;-58
2023/04/22 13:20:30;;;;;;;7.75;2.58;;;21.20;94.20;;;;;;7309085;32;20494;-58
2023/04/22 13:24:32;;;;;;;5.40;2.00;;;20.80;96.90;;;;;;7310039;32;20107;-58
2023/04/22 13:28:34;;;;;;;5.12;2.28;;;20.50;97.90;;;;;;7306174;32;20194;-55
2023/04/22 13:32:37;;;;;;;5.65;1.80;;;20.30;99.00;;;;;;7293073;32;20603;-55
2023/04/22 13:36:39;;;;;;;3.67;1.85;;;20.10;99.90;;;;;;7302308;32;20190;-55
2023/04/22 13:40:40;;;;;;;2.90;1.80;;;20.00;99.90;;;;;;7305156;32;20421;-58
2023/04/22 13:44:42;;;;;;;5.43;1.95;;;19.90;99.90;;;;;;7302695;32;20193;-57
2023/04/22 13:48:44;;;;;;;3.78;1.55;;;19.40;99.90;;;;;;7301586;32;20203;-57
2023/04/22 13:52:46;;;;;;;4.18;1.60;;;19.10;99.90;;;;;;7299881;32;20479;-57
2023/04/22 13:56:48;;;;;;;2.25;1.30;;;18.80;99.90;;;;;;7300060;32;20558;-58
2023/04/22 14:00:50;;;;;;;2.33;1.37;;;18.60;99.90;;;;;;7311988;32;20180;-57
2023/04/22 14:04:52;;;;;;;3.42;1.45;;;18.50;99.90;;;;;;7306902;32;20108;-57
2023/04/22 14:08:53;;;;;;;4.55;1.60;;;18.40;99.90;;;;;;7306639;32;20657;-57
2023/04/22 14:12:55;;;;;;;2.22;1.50;;;17.80;99.90;;;;;;7310936;32;20175;-57
2023/04/22 14:16:57;;;;;;;3.20;1.87;;;17.70;99.90;;;;;;7312501;32;20216;-57
2023/04/22 14:20:59;;;;;;;3.40;1.60;;;17.60;99.90;;;;;;7304485;32;20489;-57
2023/04/22 14:25:01;;;;;;;3.83;1.62;;;17.60;99.90;;;;;;7306543;32;20136;-58
2023/04/22 14:29:03;;;;;;;2.75;1.80;;;17.40;99.90;;;;;;7303901;32;20219;-57
2023/04/22 14:33:07;;;;;;;3.20;1.95;;;17.60;99.90;;;;;;7309488;32;20163;-57
2023/04/22 14:37:09;;;;;;;3.58;2.20;;;17.50;99.90;;;;;;7305468;32;20132;-58
2023/04/22 14:41:11;;;;;;;2.80;1.95;;;17.60;99.90;;;;;;7304218;32;20154;-57
2023/04/22 14:45:13;;;;;;;4.22;1.87;;;17.60;99.90;;;;;;7313028;32;20562;-57
2023/04/22 14:49:15;;;;;;;3.87;2.15;;;17.60;99.90;;;;;;7309663;32;20203;-57
2023/04/22 14:53:16;;;;;;;8.10;1.95;;;17.60;99.90;;;;;;7303184;32;20411;-57
2023/04/22 14:57:18;;;;;;;3.97;1.80;;;17.60;99.90;;;;;;7309060;32;20131;-57
2023/04/22 15:01:21;;;;;;;5.82;1.65;;;17.60;99.90;;;;;;7299261;32;20804;-57
2023/04/22 15:05:23;;;;;;;3.30;1.90;;;17.60;99.90;;;;;;7297476;32;20107;-57
2023/04/22 15:09:26;;;;;;;5.25;1.67;;;17.60;99.90;;;;;;7299695;32;20268;-57
2023/04/22 15:13:28;;;;;;;2.78;1.42;;;17.70;99.90;;;;;;7299249;32;20310;-57
2023/04/22 15:17:30;;;;;;;3.37;1.80;;;17.60;99.90;;;;;;7304682;32;20111;-57
2023/04/22 15:21:32;;;;;;;1.95;1.20;;;17.70;99.90;;;;;;7301413;32;20177;-57
2023/04/22 15:25:34;;;;;;;1.55;1.10;;;17.80;99.90;;;;;;7298760;32;20286;-57
2023/04/22 15:29:36;;;;;;;6.28;1.60;;;17.70;99.90;;;;;;7305090;32;20107;-57
2023/04/22 15:33:38;;;;;;;5.35;1.55;;;17.70;99.90;;;;;;7305110;32;20194;-57
2023/04/22 15:37:40;;;;;;;4.30;1.80;;;17.60;99.90;;;;;;7299509;32;20150;-57
2023/04/22 15:41:42;;;;;;;3.65;1.67;;;17.60;99.90;;;;;;7305072;32;20243;-57
2023/04/22 15:45:44;;;;;;;2.95;1.55;;;17.50;99.90;;;;;;7310911;32;20133;-57
2023/04/22 15:49:46;;;;;;;3.67;1.48;;;17.50;99.90;;;;;;7305474;32;20778;-58
2023/04/22 15:53:48;;;;;;;2.15;1.25;;;17.40;99.90;;;;;;7302340;32;20191;-56
2023/04/22 15:57:49;;;;;;;3.72;1.20;;;17.30;99.90;;;;;;7302126;32;21418;-55
2023/04/22 16:01:51;;;;;;;3.53;1.12;;;17.20;99.90;;;;;;7307077;32;20823;-55
2023/04/22 16:05:54;;;;;;;2.10;1.20;;;17.10;99.90;;;;;;7308226;32;20621;-55
2023/04/22 16:09:55;;;;;;;4.95;1.25;;;17.00;99.90;;;;;;7302689;32;20471;-57
2023/04/22 16:13:57;;;;;;;2.30;1.05;;;17.00;99.90;;;;;;7312098;32;20262;-57
2023/04/22 16:17:59;;;;;;;2.62;1.27;;;16.90;99.90;;;;;;7306234;32;20211;-54
2023/04/22 16:22:01;;;;;;;2.12;1.10;;;16.80;99.90;;;;;;7301651;32;20518;-57
2023/04/22 16:26:04;;;;;;;4.60;1.60;;;16.50;99.90;;;;;;7310647;32;20555;-57
2023/04/22 16:30:06;;;;;;;3.08;1.80;;;16.20;99.90;;;;;;7305657;32;22382;-56
2023/04/22 16:34:08;;;;;;;3.22;1.90;;;16.00;99.90;;;;;;7300010;32;20183;-57
2023/04/22 16:38:10;;;;;;;4.93;1.87;;;15.80;99.90;;;;;;7305517;32;20112;-56
2023/04/22 16:42:12;;;;;;;3.97;2.08;;;15.60;99.90;;;;;;7302028;32;20207;-56
2023/04/22 16:46:13;;;;;;;2.90;2.05;;;15.40;99.90;;;;;;7300498;32;20142;-57
2023/04/22 16:50:16;;;;;;;11.93;6.82;;;15.10;99.90;;;;;;7304382;32;20840;-57
2023/04/22 16:54:17;;;;;;;5.75;3.10;;;14.90;99.90;;;;;;7307388;32;20332;-57
2023/04/22 16:58:19;;;;;;;4.90;2.87;;;14.70;99.90;;;;;;7306121;32;20125;-56
2023/04/22 17:02:21;;;;;;;4.82;2.50;;;14.70;99.90;;;;;;7302687;32;20187;-57
2023/04/22 17:06:23;;;;;;;4.53;3.25;;;14.60;99.90;;;;;;7303145;32;20178;-57
2023/04/22 17:10:24;;;;;;;6.75;3.50;;;14.50;99.90;;;;;;7308227;32;20771;-57
2023/04/22 17:14:26;;;;;;;5.37;3.30;;;14.50;99.90;;;;;;7303492;32;20263;-58
2023/04/22 17:18:28;;;;;;;7.93;4.07;;;14.40;99.90;;;;;;7288208;32;20631;-58
2023/04/22 17:22:29;;;;;;;5.03;3.28;;;14.50;99.90;;;;;;7300080;32;20185;-60
2023/04/22 17:26:32;;;;;;;5.05;3.40;;;14.40;99.90;;;;;;7303341;32;20250;-57
2023/04/22 17:30:34;;;;;;;6.62;3.65;;;14.30;99.90;;;;;;7307031;32;20204;-57
2023/04/22 17:34:36;;;;;;;4.70;3.50;;;14.30;99.90;;;;;;7303978;32;20554;-56
2023/04/22 17:38:39;;;;;;;6.50;3.75;;;14.20;99.90;;;;;;7312489;32;20267;-57
2023/04/22 17:42:41;;;;;;;4.72;3.35;;;14.20;99.90;;;;;;7303577;32;20633;-56
2023/04/22 17:46:47;;;;;;;7.07;4.10;;;14.20;99.90;;;;;;7304024;32;20134;-56
2023/04/22 17:50:49;;;;;;;6.47;3.65;;;14.10;99.90;;;;;;7302168;32;20131;-56
2023/04/22 17:54:51;;;;;;;9.27;3.92;;;14.10;99.90;;;;;;7294216;32;20120;-57
2023/04/22 17:58:52;;;;;;;6.80;4.15;;;14.20;99.90;;;;;;7298649;32;20124;-57
2023/04/22 18:02:54;;;;;;;5.75;3.85;;;14.10;99.90;;;;;;7306822;32;20111;-56
2023/04/22 18:06:56;;;;;;;6.53;3.90;;;14.10;99.90;;;;;;7309800;32;20242;-57
2023/04/22 18:10:58;;;;;;;6.97;3.70;;;14.00;99.90;;;;;;7298643;32;20278;-57
2023/04/22 18:15:00;;;;;;;6.28;3.75;;;14.00;99.90;;;;;;7303659;32;20194;-56
2023/04/22 18:19:05;;;;;;;5.32;3.72;;;14.10;99.90;;;;;;7304119;32;20222;-56
2023/04/22 18:23:07;;;;;;;7.07;4.28;;;14.00;99.90;;;;;;7303281;32;20162;-56
2023/04/22 18:27:09;;;;;;;6.85;3.95;;;14.00;99.90;;;;;;7303550;32;20257;-57
2023/04/22 18:31:11;;;;;;;6.03;3.85;;;14.00;99.90;;;;;;7297521;32;20116;-57
2023/04/22 18:35:14;;;;;;;7.62;3.80;;;13.80;99.90;;;;;;7300637;32;20165;-56
2023/04/22 18:39:16;;;;;;;6.82;4.18;;;13.90;99.90;;;;;;7309941;32;20167;-57
2023/04/22 18:43:18;;;;;;;6.80;3.85;;;13.90;99.90;;;;;;7303704;32;20142;-57
2023/04/22 18:47:19;;;;;;;6.97;4.87;;;13.80;99.90;;;;;;7305352;32;20191;-57
2023/04/22 18:51:21;;;;;;;11.02;5.00;;;13.80;99.90;;;;;;7303150;32;20214;-56
2023/04/22 18:55:23;;;;;;;6.82;4.90;;;13.70;99.90;;;;;;7295429;32;20148;-56
2023/04/22 18:59:24;;;;;;;8.48;4.85;;;13.70;99.90;;;;;;7296048;32;20180;-56
2023/04/22 19:03:26;;;;;;;8.82;5.43;;;13.60;99.90;;;;;;7290520;32;20151;-56
2023/04/22 19:07:28;;;;;;;5.28;4.20;;;13.60;99.90;;;;;;7292303;32;20886;-57
2023/04/22 19:11:30;;;;;;;8.43;4.47;;;13.70;99.90;;;;;;7295598;32;20558;-56
2023/04/22 19:15:32;;;;;;;6.05;4.12;;;13.80;99.90;;;;;;7300920;32;20112;-57
2023/04/22 19:19:34;;;;;;;10.32;5.10;;;13.70;99.90;;;;;;7303837;32;20176;-56
2023/04/22 19:23:35;;;;;;;4.97;3.80;;;13.70;99.90;;;;;;7298579;32;20106;-55
2023/04/22 19:27:37;;;;;;;4.12;3.47;;;13.60;99.90;;;;;;7296558;32;20207;-57
2023/04/22 19:31:39;;;;;;;4.40;3.85;;;13.50;99.90;;;;;;7298128;32;20302;-56
2023/04/22 19:35:41;;;;;;;5.35;4.85;;;13.40;99.90;;;;;;7291661;32;20201;-56
2023/04/22 19:39:43;;;;;;;5.60;4.60;;;13.30;99.90;;;;;;7302882;32;20112;-55
2023/04/22 19:43:45;;;;;;;6.78;4.90;;;13.20;99.90;;;;;;7302274;32;20218;-55
2023/04/22 19:47:47;;;;;;;5.60;5.00;;;13.00;99.90;;;;;;7298444;32;20218;-56
2023/04/22 19:51:50;;;;;;;6.25;5.62;;;13.00;99.90;;;;;;7297357;32;20232;-55
2023/04/22 19:55:51;;;;;;;6.65;5.95;;;12.90;99.90;;;;;;7298716;32;20250;-56
2023/04/22 19:59:54;;;;;;;7.20;6.18;;;12.90;99.90;;;;;;7292705;32;20108;-56
2023/04/22 20:03:56;;;;;;;8.93;6.93;;;12.90;99.90;;;;;;7309525;32;20226;-56
2023/04/22 20:08:00;;;;;;;9.73;7.95;;;12.90;99.90;;;;;;7296252;32;20123;-55
2023/04/22 20:12:03;;;;;;;9.25;8.25;;;12.80;99.90;;;;;;7299212;32;20107;-56
2023/04/22 20:16:05;;;;;;;10.25;9.15;;;12.80;99.90;;;;;;7293002;32;20124;-56
2023/04/22 20:20:12;;;;;;;11.40;8.98;;;12.70;99.90;;;;;;7298132;32;22053;-56
2023/04/22 20:24:18;;;;;;;10.80;9.70;;;12.70;99.90;;;;;;7299122;32;20184;-56
2023/04/22 20:28:20;;;;;;;11.90;10.70;;;12.60;99.90;;;;;;7294336;32;20392;-56
2023/04/22 20:32:22;;;;;;;11.57;10.38;;;12.60;99.90;;;;;;7292797;32;20116;-56
2023/04/22 20:36:25;;;;;;;12.82;10.90;;;12.70;99.90;;;;;;7297455;32;21377;-55
2023/04/22 20:40:27;;;;;;;15.98;11.93;;;12.70;99.90;;;;;;7308602;32;20135;-55
2023/04/22 20:44:30;;;;;;;16.25;14.48;;;12.60;99.90;;;;;;7299687;32;20268;-56
2023/04/22 20:48:31;;;;;;;16.33;14.38;;;12.50;99.90;;;;;;7297962;32;20096;-56
2023/04/22 20:52:33;;;;;;;16.02;14.32;;;12.40;99.90;;;;;;7301272;32;20108;-55
2023/04/22 20:56:35;;;;;;;16.30;14.50;;;12.20;99.90;;;;;;7305478;32;20183;-55
2023/04/22 21:00:37;;;;;;;14.15;12.75;;;12.20;99.90;;;;;;7301696;32;20514;-56
2023/04/22 21:04:39;;;;;;;14.50;12.88;;;12.10;99.90;;;;;;7302852;32;20405;-55